Unity, Illinois
Current Conditions -  °F | °C
As of 7:15 AM on Saturday 22 Nov 2014 (Local Time) from KCIR Reporting Station
Overcast Overcast  
Wind Chill: 54°   Ceiling: 5500
Heat Index: 54°   Visibility: 10mi
Dew Point: 44°   Wind: 12mph
Humidity: 68%   Direction: 160°SSE
Pressure: 30.24"   Gusts: NA
Location:  37.23°N, 89.27°W
Report Text: KCIR 221315Z AUTO 16010KT 10SM OVC055 12/06 A3024 RMK AO2 T01210064
Loading
Personal Weather Stations






























Interactive Weather Map New forecast layout! Learn more

10-Day Weather Forecast

Advertisements
Track Severe Weather on mobile